sensor_id;sensor_type;location;lat;lon;timestamp;P1;P2;P0
68116;PMS7003;54909;54.464;18.498;2023-12-22T00:02:00;2;0;0
68116;PMS7003;54909;54.464;18.498;2023-12-22T00:05:07;1;0;0
68116;PMS7003;54909;54.464;18.498;2023-12-22T00:08:08;1;0;0
68116;PMS7003;54909;54.464;18.498;2023-12-22T00:11:10;0;0;0
68116;PMS7003;54909;54.464;18.498;2023-12-22T00:14:16;0;0;0
68116;PMS7003;54909;54.464;18.498;2023-12-22T00:17:17;1;0;0
68116;PMS7003;54909;54.464;18.498;2023-12-22T00:20:18;0;0;0
68116;PMS7003;54909;54.464;18.498;2023-12-22T00:23:25;1;0;0
68116;PMS7003;54909;54.464;18.498;2023-12-22T00:26:26;0;0;0
68116;PMS7003;54909;54.464;18.498;2023-12-22T00:29:28;2;0;0
68116;PMS7003;54909;54.464;18.498;2023-12-22T00:32:34;0;0;0
68116;PMS7003;54909;54.464;18.498;2023-12-22T00:35:36;0;0;0
68116;PMS7003;54909;54.464;18.498;2023-12-22T00:38:38;0;0;0
68116;PMS7003;54909;54.464;18.498;2023-12-22T00:41:44;1;0;0
68116;PMS7003;54909;54.464;18.498;2023-12-22T00:44:45;0;0;0
68116;PMS7003;54909;54.464;18.498;2023-12-22T00:47:46;1;0;0
68116;PMS7003;54909;54.464;18.498;2023-12-22T00:50:53;0;0;0
68116;PMS7003;54909;54.464;18.498;2023-12-22T00:53:54;3;1;1
68116;PMS7003;54909;54.464;18.498;2023-12-22T00:56:55;0;0;0
68116;PMS7003;54909;54.464;18.498;2023-12-22T01:00:03;1;0;0
68116;PMS7003;54909;54.464;18.498;2023-12-22T01:03:09;1;0;0
68116;PMS7003;54909;54.464;18.498;2023-12-22T01:06:13;0;0;0
68116;PMS7003;54909;54.464;18.498;2023-12-22T01:09:15;1;0;0
68116;PMS7003;54909;54.464;18.498;2023-12-22T01:12:16;1;0;0
68116;PMS7003;54909;54.464;18.498;2023-12-22T01:15:17;0;0;0
68116;PMS7003;54909;54.464;18.498;2023-12-22T01:18:21;0;0;0
68116;PMS7003;54909;54.464;18.498;2023-12-22T01:21:22;0;0;0
68116;PMS7003;54909;54.464;18.498;2023-12-22T01:24:23;0;0;0
68116;PMS7003;54909;54.464;18.498;2023-12-22T01:27:30;0;0;0
68116;PMS7003;54909;54.464;18.498;2023-12-22T01:30:32;0;0;0
68116;PMS7003;54909;54.464;18.498;2023-12-22T01:33:33;0;0;0
68116;PMS7003;54909;54.464;18.498;2023-12-22T01:36:39;0;0;0
68116;PMS7003;54909;54.464;18.498;2023-12-22T01:39:41;0;0;0
68116;PMS7003;54909;54.464;18.498;2023-12-22T01:42:42;0;0;0
68116;PMS7003;54909;54.464;18.498;2023-12-22T01:45:49;0;0;0
68116;PMS7003;54909;54.464;18.498;2023-12-22T01:48:55;0;0;0
68116;PMS7003;54909;54.464;18.498;2023-12-22T01:51:57;0;0;0
68116;PMS7003;54909;54.464;18.498;2023-12-22T01:54:59;0;0;0
68116;PMS7003;54909;54.464;18.498;2023-12-22T01:58:02;0;0;0
68116;PMS7003;54909;54.464;18.498;2023-12-22T02:01:04;0;0;0
68116;PMS7003;54909;54.464;18.498;2023-12-22T02:04:07;0;0;0
68116;PMS7003;54909;54.464;18.498;2023-12-22T02:07:08;0;0;0
68116;PMS7003;54909;54.464;18.498;2023-12-22T02:10:11;0;0;0
68116;PMS7003;54909;54.464;18.498;2023-12-22T02:13:16;0;0;0
68116;PMS7003;54909;54.464;18.498;2023-12-22T02:16:23;0;0;0
68116;PMS7003;54909;54.464;18.498;2023-12-22T02:19:40;0;0;0
68116;PMS7003;54909;54.464;18.498;2023-12-22T02:22:43;0;0;0
68116;PMS7003;54909;54.464;18.498;2023-12-22T02:25:56;1;0;0
68116;PMS7003;54909;54.464;18.498;2023-12-22T02:29:03;2;1;1
68116;PMS7003;54909;54.464;18.498;2023-12-22T02:32:07;1;0;0
68116;PMS7003;54909;54.464;18.498;2023-12-22T02:35:11;1;0;0
68116;PMS7003;54909;54.464;18.498;2023-12-22T02:38:18;1;0;0
68116;PMS7003;54909;54.464;18.498;2023-12-22T02:41:21;0;0;0
68116;PMS7003;54909;54.464;18.498;2023-12-22T02:44:23;2;1;1
68116;PMS7003;54909;54.464;18.498;2023-12-22T02:47:24;1;0;0
68116;PMS7003;54909;54.464;18.498;2023-12-22T02:50:28;0;0;0
68116;PMS7003;54909;54.464;18.498;2023-12-22T02:53:29;1;0;0
68116;PMS7003;54909;54.464;18.498;2023-12-22T02:56:30;1;1;1
68116;PMS7003;54909;54.464;18.498;2023-12-22T02:59:32;1;1;1
68116;PMS7003;54909;54.464;18.498;2023-12-22T03:02:33;1;1;0
68116;PMS7003;54909;54.464;18.498;2023-12-22T03:05:34;1;1;1
68116;PMS7003;54909;54.464;18.498;2023-12-22T03:08:36;0;0;0
68116;PMS7003;54909;54.464;18.498;2023-12-22T03:11:42;1;1;1
68116;PMS7003;54909;54.464;18.498;2023-12-22T03:14:44;2;0;0
68116;PMS7003;54909;54.464;18.498;2023-12-22T03:17:45;0;0;0
68116;PMS7003;54909;54.464;18.498;2023-12-22T03:20:52;1;0;0
68116;PMS7003;54909;54.464;18.498;2023-12-22T03:23:53;0;0;0
68116;PMS7003;54909;54.464;18.498;2023-12-22T03:26:54;1;1;1
68116;PMS7003;54909;54.464;18.498;2023-12-22T03:30:01;0;0;0
68116;PMS7003;54909;54.464;18.498;2023-12-22T03:33:04;2;0;0
68116;PMS7003;54909;54.464;18.498;2023-12-22T03:36:07;0;0;0
68116;PMS7003;54909;54.464;18.498;2023-12-22T03:39:10;0;0;0
68116;PMS7003;54909;54.464;18.498;2023-12-22T03:42:12;1;0;0
68116;PMS7003;54909;54.464;18.498;2023-12-22T03:45:13;0;0;0
68116;PMS7003;54909;54.464;18.498;2023-12-22T03:48:20;1;0;0
68116;PMS7003;54909;54.464;18.498;2023-12-22T03:51:21;1;0;0
68116;PMS7003;54909;54.464;18.498;2023-12-22T03:54:22;1;1;1
68116;PMS7003;54909;54.464;18.498;2023-12-22T03:57:29;0;0;0
68116;PMS7003;54909;54.464;18.498;2023-12-22T04:00:30;0;0;0
68116;PMS7003;54909;54.464;18.498;2023-12-22T04:03:32;1;1;1
68116;PMS7003;54909;54.464;18.498;2023-12-22T04:06:39;0;0;0
68116;PMS7003;54909;54.464;18.498;2023-12-22T04:09:43;1;0;0
68116;PMS7003;54909;54.464;18.498;2023-12-22T04:12:44;1;1;1
68116;PMS7003;54909;54.464;18.498;2023-12-22T04:15:48;1;0;0
68116;PMS7003;54909;54.464;18.498;2023-12-22T04:18:49;1;1;0
68116;PMS7003;54909;54.464;18.498;2023-12-22T04:21:50;1;1;0
68116;PMS7003;54909;54.464;18.498;2023-12-22T04:24:57;0;0;0
68116;PMS7003;54909;54.464;18.498;2023-12-22T04:27:59;1;0;0
68116;PMS7003;54909;54.464;18.498;2023-12-22T04:31:00;0;0;0
68116;PMS7003;54909;54.464;18.498;2023-12-22T04:34:07;1;0;0
68116;PMS7003;54909;54.464;18.498;2023-12-22T04:37:08;1;0;0
68116;PMS7003;54909;54.464;18.498;2023-12-22T04:40:10;1;0;0
68116;PMS7003;54909;54.464;18.498;2023-12-22T04:43:16;3;1;0
68116;PMS7003;54909;54.464;18.498;2023-12-22T04:46:17;2;0;0
68116;PMS7003;54909;54.464;18.498;2023-12-22T04:49:19;0;0;0
68116;PMS7003;54909;54.464;18.498;2023-12-22T04:52:25;0;0;0
68116;PMS7003;54909;54.464;18.498;2023-12-22T04:55:27;0;0;0
68116;PMS7003;54909;54.464;18.498;2023-12-22T04:58:28;0;0;0
68116;PMS7003;54909;54.464;18.498;2023-12-22T05:01:35;1;1;0
68116;PMS7003;54909;54.464;18.498;2023-12-22T05:04:36;2;1;0
68116;PMS7003;54909;54.464;18.498;2023-12-22T05:07:37;1;1;1
68116;PMS7003;54909;54.464;18.498;2023-12-22T05:10:44;1;1;1
68116;PMS7003;54909;54.464;18.498;2023-12-22T05:13:46;2;0;0
68116;PMS7003;54909;54.464;18.498;2023-12-22T05:16:48;1;1;1
68116;PMS7003;54909;54.464;18.498;2023-12-22T05:19:54;5;1;1
68116;PMS7003;54909;54.464;18.498;2023-12-22T05:22:55;4;1;1
68116;PMS7003;54909;54.464;18.498;2023-12-22T05:25:59;2;1;1
68116;PMS7003;54909;54.464;18.498;2023-12-22T05:29:03;5;2;1
68116;PMS7003;54909;54.464;18.498;2023-12-22T05:32:05;4;3;2
68116;PMS7003;54909;54.464;18.498;2023-12-22T05:35:07;6;2;2
68116;PMS7003;54909;54.464;18.498;2023-12-22T05:38:13;7;2;1
68116;PMS7003;54909;54.464;18.498;2023-12-22T05:41:14;4;2;2
68116;PMS7003;54909;54.464;18.498;2023-12-22T05:44:15;1;1;1
68116;PMS7003;54909;54.464;18.498;2023-12-22T05:47:22;2;1;1
68116;PMS7003;54909;54.464;18.498;2023-12-22T05:50:23;6;1;1
68116;PMS7003;54909;54.464;18.498;2023-12-22T05:53:24;3;1;1
68116;PMS7003;54909;54.464;18.498;2023-12-22T05:56:31;1;1;1
68116;PMS7003;54909;54.464;18.498;2023-12-22T05:59:34;0;0;0
68116;PMS7003;54909;54.464;18.498;2023-12-22T06:02:35;7;1;0
68116;PMS7003;54909;54.464;18.498;2023-12-22T06:05:41;3;1;1
68116;PMS7003;54909;54.464;18.498;2023-12-22T06:08:42;2;1;1
68116;PMS7003;54909;54.464;18.498;2023-12-22T06:11:44;6;2;1
68116;PMS7003;54909;54.464;18.498;2023-12-22T06:14:50;3;2;1
68116;PMS7003;54909;54.464;18.498;2023-12-22T06:17:52;2;2;2
68116;PMS7003;54909;54.464;18.498;2023-12-22T06:20:53;2;2;0
68116;PMS7003;54909;54.464;18.498;2023-12-22T06:24:00;4;1;1
68116;PMS7003;54909;54.464;18.498;2023-12-22T06:27:01;6;1;1
68116;PMS7003;54909;54.464;18.498;2023-12-22T06:30:03;3;1;1
68116;PMS7003;54909;54.464;18.498;2023-12-22T06:33:09;3;2;1
68116;PMS7003;54909;54.464;18.498;2023-12-22T06:39:22;4;3;2
68116;PMS7003;54909;54.464;18.498;2023-12-22T06:42:23;2;2;2
68116;PMS7003;54909;54.464;18.498;2023-12-22T06:45:25;2;2;2
68116;PMS7003;54909;54.464;18.498;2023-12-22T06:48:26;5;3;2
68116;PMS7003;54909;54.464;18.498;2023-12-22T06:51:30;6;2;1
68116;PMS7003;54909;54.464;18.498;2023-12-22T06:54:35;7;2;2
68116;PMS7003;54909;54.464;18.498;2023-12-22T06:57:36;2;1;1
68116;PMS7003;54909;54.464;18.498;2023-12-22T07:00:40;3;3;2
68116;PMS7003;54909;54.464;18.498;2023-12-22T07:03:41;2;2;2
68116;PMS7003;54909;54.464;18.498;2023-12-22T07:06:42;1;1;1
68116;PMS7003;54909;54.464;18.498;2023-12-22T07:09:47;2;1;0
68116;PMS7003;54909;54.464;18.498;2023-12-22T07:12:49;7;2;2
68116;PMS7003;54909;54.464;18.498;2023-12-22T07:15:50;1;1;1
68116;PMS7003;54909;54.464;18.498;2023-12-22T07:18:56;2;2;1
68116;PMS7003;54909;54.464;18.498;2023-12-22T07:21:58;2;2;1
68116;PMS7003;54909;54.464;18.498;2023-12-22T07:24:59;2;1;1
68116;PMS7003;54909;54.464;18.498;2023-12-22T07:28:06;5;2;2
68116;PMS7003;54909;54.464;18.498;2023-12-22T07:31:07;8;3;2
68116;PMS7003;54909;54.464;18.498;2023-12-22T07:34:08;3;3;2
68116;PMS7003;54909;54.464;18.498;2023-12-22T07:37:15;2;1;1
68116;PMS7003;54909;54.464;18.498;2023-12-22T07:40:16;5;4;2
68116;PMS7003;54909;54.464;18.498;2023-12-22T07:43:18;5;2;2
68116;PMS7003;54909;54.464;18.498;2023-12-22T07:46:25;2;2;2
68116;PMS7003;54909;54.464;18.498;2023-12-22T07:49:26;6;3;3
68116;PMS7003;54909;54.464;18.498;2023-12-22T07:52:27;4;2;2
68116;PMS7003;54909;54.464;18.498;2023-12-22T07:55:34;2;2;1
68116;PMS7003;54909;54.464;18.498;2023-12-22T07:58:38;3;3;3
68116;PMS7003;54909;54.464;18.498;2023-12-22T08:01:40;2;1;1
68116;PMS7003;54909;54.464;18.498;2023-12-22T08:04:44;1;1;1
68116;PMS7003;54909;54.464;18.498;2023-12-22T08:07:45;4;3;2
68116;PMS7003;54909;54.464;18.498;2023-12-22T08:10:46;2;2;1
68116;PMS7003;54909;54.464;18.498;2023-12-22T08:13:53;2;1;0
68116;PMS7003;54909;54.464;18.498;2023-12-22T08:16:54;0;0;0
68116;PMS7003;54909;54.464;18.498;2023-12-22T08:19:56;2;2;1
68116;PMS7003;54909;54.464;18.498;2023-12-22T08:23:03;2;1;1
68116;PMS7003;54909;54.464;18.498;2023-12-22T08:26:04;1;1;1
68116;PMS7003;54909;54.464;18.498;2023-12-22T08:29:05;1;1;1
68116;PMS7003;54909;54.464;18.498;2023-12-22T08:32:12;2;2;2
68116;PMS7003;54909;54.464;18.498;2023-12-22T08:35:13;1;1;1
68116;PMS7003;54909;54.464;18.498;2023-12-22T08:38:15;4;2;1
68116;PMS7003;54909;54.464;18.498;2023-12-22T08:41:21;3;2;2
68116;PMS7003;54909;54.464;18.498;2023-12-22T08:44:23;2;2;1
68116;PMS7003;54909;54.464;18.498;2023-12-22T08:47:24;2;2;1
68116;PMS7003;54909;54.464;18.498;2023-12-22T08:50:31;2;2;1
68116;PMS7003;54909;54.464;18.498;2023-12-22T08:53:33;3;2;1
68116;PMS7003;54909;54.464;18.498;2023-12-22T08:56:38;1;1;1
68116;PMS7003;54909;54.464;18.498;2023-12-22T08:59:40;0;0;0
68116;PMS7003;54909;54.464;18.498;2023-12-22T09:02:41;0;0;0
68116;PMS7003;54909;54.464;18.498;2023-12-22T09:05:42;2;1;1
68116;PMS7003;54909;54.464;18.498;2023-12-22T09:08:50;1;0;0
68116;PMS7003;54909;54.464;18.498;2023-12-22T09:11:51;1;1;1
68116;PMS7003;54909;54.464;18.498;2023-12-22T09:14:52;1;1;1
68116;PMS7003;54909;54.464;18.498;2023-12-22T09:17:59;2;1;1
68116;PMS7003;54909;54.464;18.498;2023-12-22T09:21:00;2;2;1
68116;PMS7003;54909;54.464;18.498;2023-12-22T09:24:03;1;1;1
68116;PMS7003;54909;54.464;18.498;2023-12-22T09:27:08;3;0;0
68116;PMS7003;54909;54.464;18.498;2023-12-22T09:30:10;2;2;2
68116;PMS7003;54909;54.464;18.498;2023-12-22T09:33:11;1;1;1
68116;PMS7003;54909;54.464;18.498;2023-12-22T09:36:18;1;1;1
68116;PMS7003;54909;54.464;18.498;2023-12-22T09:39:19;2;1;1
68116;PMS7003;54909;54.464;18.498;2023-12-22T09:42:21;1;1;1
68116;PMS7003;54909;54.464;18.498;2023-12-22T09:45:27;0;0;0
68116;PMS7003;54909;54.464;18.498;2023-12-22T09:48:32;1;1;1
68116;PMS7003;54909;54.464;18.498;2023-12-22T09:51:38;4;2;2
68116;PMS7003;54909;54.464;18.498;2023-12-22T09:54:40;2;1;1
68116;PMS7003;54909;54.464;18.498;2023-12-22T09:57:42;1;1;1
68116;PMS7003;54909;54.464;18.498;2023-12-22T10:00:45;0;0;0
68116;PMS7003;54909;54.464;18.498;2023-12-22T10:03:50;3;1;1
68116;PMS7003;54909;54.464;18.498;2023-12-22T10:06:52;3;1;1
68116;PMS7003;54909;54.464;18.498;2023-12-22T10:09:57;2;1;1
68116;PMS7003;54909;54.464;18.498;2023-12-22T10:13:01;1;1;0
68116;PMS7003;54909;54.464;18.498;2023-12-22T10:16:09;1;1;1
68116;PMS7003;54909;54.464;18.498;2023-12-22T10:19:10;3;1;1
68116;PMS7003;54909;54.464;18.498;2023-12-22T10:22:12;0;0;0
68116;PMS7003;54909;54.464;18.498;2023-12-22T10:25:18;2;1;1
68116;PMS7003;54909;54.464;18.498;2023-12-22T10:28:22;1;1;1
68116;PMS7003;54909;54.464;18.498;2023-12-22T10:31:27;2;1;1
68116;PMS7003;54909;54.464;18.498;2023-12-22T10:34:29;2;1;1
68116;PMS7003;54909;54.464;18.498;2023-12-22T10:37:30;1;1;1
68116;PMS7003;54909;54.464;18.498;2023-12-22T10:40:33;1;1;1
68116;PMS7003;54909;54.464;18.498;2023-12-22T10:46:41;2;2;2
68116;PMS7003;54909;54.464;18.498;2023-12-22T10:49:42;0;0;0
68116;PMS7003;54909;54.464;18.498;2023-12-22T10:52:49;2;1;0
68116;PMS7003;54909;54.464;18.498;2023-12-22T10:55:51;0;0;0
68116;PMS7003;54909;54.464;18.498;2023-12-22T10:58:53;2;2;0
68116;PMS7003;54909;54.464;18.498;2023-12-22T11:01:56;1;1;0
68116;PMS7003;54909;54.464;18.498;2023-12-22T11:08:06;1;1;1
68116;PMS7003;54909;54.464;18.498;2023-12-22T11:11:30;0;0;0
68116;PMS7003;54909;54.464;18.498;2023-12-22T11:14:26;1;1;0
68116;PMS7003;54909;54.464;18.498;2023-12-22T11:17:30;4;3;3
68116;PMS7003;54909;54.464;18.498;2023-12-22T11:20:32;1;1;0
68116;PMS7003;54909;54.464;18.498;2023-12-22T11:23:35;0;0;0
68116;PMS7003;54909;54.464;18.498;2023-12-22T11:26:37;0;0;0
68116;PMS7003;54909;54.464;18.498;2023-12-22T11:29:41;2;1;0
68116;PMS7003;54909;54.464;18.498;2023-12-22T11:32:43;2;1;1
68116;PMS7003;54909;54.464;18.498;2023-12-22T11:35:46;1;1;1
68116;PMS7003;54909;54.464;18.498;2023-12-22T11:38:47;0;0;0
68116;PMS7003;54909;54.464;18.498;2023-12-22T11:41:49;0;0;0
68116;PMS7003;54909;54.464;18.498;2023-12-22T11:44:53;0;0;0
68116;PMS7003;54909;54.464;18.498;2023-12-22T11:47:55;2;0;0
68116;PMS7003;54909;54.464;18.498;2023-12-22T11:50:57;0;0;0
68116;PMS7003;54909;54.464;18.498;2023-12-22T11:53:58;0;0;0
68116;PMS7003;54909;54.464;18.498;2023-12-22T11:56:59;0;0;0
68116;PMS7003;54909;54.464;18.498;2023-12-22T12:00:05;0;0;0
68116;PMS7003;54909;54.464;18.498;2023-12-22T12:03:12;0;0;0
68116;PMS7003;54909;54.464;18.498;2023-12-22T12:06:14;1;1;1
68116;PMS7003;54909;54.464;18.498;2023-12-22T12:09:23;0;0;0
68116;PMS7003;54909;54.464;18.498;2023-12-22T12:12:33;1;0;0
68116;PMS7003;54909;54.464;18.498;2023-12-22T12:15:42;1;0;0
68116;PMS7003;54909;54.464;18.498;2023-12-22T12:18:44;1;0;0
68116;PMS7003;54909;54.464;18.498;2023-12-22T12:21:46;0;0;0
68116;PMS7003;54909;54.464;18.498;2023-12-22T12:24:52;0;0;0
68116;PMS7003;54909;54.464;18.498;2023-12-22T12:31:05;0;0;0
68116;PMS7003;54909;54.464;18.498;2023-12-22T12:34:11;6;3;2
68116;PMS7003;54909;54.464;18.498;2023-12-22T12:37:18;6;4;3
68116;PMS7003;54909;54.464;18.498;2023-12-22T12:40:20;1;1;0
68116;PMS7003;54909;54.464;18.498;2023-12-22T12:43:25;1;1;1
68116;PMS7003;54909;54.464;18.498;2023-12-22T12:49:38;1;0;0
68116;PMS7003;54909;54.464;18.498;2023-12-22T12:52:39;1;1;1
68116;PMS7003;54909;54.464;18.498;2023-12-22T12:55:40;0;0;0
68116;PMS7003;54909;54.464;18.498;2023-12-22T12:58:41;0;0;0
68116;PMS7003;54909;54.464;18.498;2023-12-22T13:01:43;0;0;0
68116;PMS7003;54909;54.464;18.498;2023-12-22T13:04:45;0;0;0
68116;PMS7003;54909;54.464;18.498;2023-12-22T13:07:46;0;0;0
68116;PMS7003;54909;54.464;18.498;2023-12-22T13:10:49;0;0;0
68116;PMS7003;54909;54.464;18.498;2023-12-22T13:14:01;1;0;0
68116;PMS7003;54909;54.464;18.498;2023-12-22T13:17:03;0;0;0
68116;PMS7003;54909;54.464;18.498;2023-12-22T13:20:06;0;0;0
68116;PMS7003;54909;54.464;18.498;2023-12-22T13:23:08;0;0;0
68116;PMS7003;54909;54.464;18.498;2023-12-22T13:29:20;1;1;0
68116;PMS7003;54909;54.464;18.498;2023-12-22T13:32:21;2;0;0
68116;PMS7003;54909;54.464;18.498;2023-12-22T13:35:28;1;1;1
68116;PMS7003;54909;54.464;18.498;2023-12-22T13:38:29;0;0;0
68116;PMS7003;54909;54.464;18.498;2023-12-22T13:44:45;0;0;0
68116;PMS7003;54909;54.464;18.498;2023-12-22T13:47:49;0;0;0
68116;PMS7003;54909;54.464;18.498;2023-12-22T13:50:55;1;1;1
68116;PMS7003;54909;54.464;18.498;2023-12-22T13:53:59;2;1;1
68116;PMS7003;54909;54.464;18.498;2023-12-22T13:57:00;1;0;0
68116;PMS7003;54909;54.464;18.498;2023-12-22T14:00:24;1;0;0
68116;PMS7003;54909;54.464;18.498;2023-12-22T14:03:14;0;0;0
68116;PMS7003;54909;54.464;18.498;2023-12-22T14:06:22;0;0;0
68116;PMS7003;54909;54.464;18.498;2023-12-22T14:09:23;1;0;0
68116;PMS7003;54909;54.464;18.498;2023-12-22T14:12:25;2;1;1
68116;PMS7003;54909;54.464;18.498;2023-12-22T14:15:26;1;1;1
68116;PMS7003;54909;54.464;18.498;2023-12-22T14:18:30;2;1;1
68116;PMS7003;54909;54.464;18.498;2023-12-22T14:21:31;2;2;1
68116;PMS7003;54909;54.464;18.498;2023-12-22T14:24:33;1;1;1
68116;PMS7003;54909;54.464;18.498;2023-12-22T14:27:35;2;1;1
68116;PMS7003;54909;54.464;18.498;2023-12-22T14:30:36;3;1;1
68116;PMS7003;54909;54.464;18.498;2023-12-22T14:33:37;1;1;1
68116;PMS7003;54909;54.464;18.498;2023-12-22T14:36:38;5;3;2
68116;PMS7003;54909;54.464;18.498;2023-12-22T14:39:40;5;2;2
68116;PMS7003;54909;54.464;18.498;2023-12-22T14:42:47;3;3;2
68116;PMS7003;54909;54.464;18.498;2023-12-22T14:45:48;6;3;3
68116;PMS7003;54909;54.464;18.498;2023-12-22T14:48:49;5;3;2
68116;PMS7003;54909;54.464;18.498;2023-12-22T14:51:56;9;7;5
68116;PMS7003;54909;54.464;18.498;2023-12-22T14:55:00;3;2;2
68116;PMS7003;54909;54.464;18.498;2023-12-22T14:58:02;12;7;4
68116;PMS7003;54909;54.464;18.498;2023-12-22T15:01:11;2;1;1
68116;PMS7003;54909;54.464;18.498;2023-12-22T15:04:14;6;3;2
68116;PMS7003;54909;54.464;18.498;2023-12-22T15:07:16;7;6;3
68116;PMS7003;54909;54.464;18.498;2023-12-22T15:10:18;3;3;2
68116;PMS7003;54909;54.464;18.498;2023-12-22T15:13:19;2;1;1
68116;PMS7003;54909;54.464;18.498;2023-12-22T15:16:20;2;2;2
68116;PMS7003;54909;54.464;18.498;2023-12-22T15:19:26;7;6;4
68116;PMS7003;54909;54.464;18.498;2023-12-22T15:22:27;6;4;4
68116;PMS7003;54909;54.464;18.498;2023-12-22T15:25:28;7;3;2
68116;PMS7003;54909;54.464;18.498;2023-12-22T15:28:36;7;6;4
68116;PMS7003;54909;54.464;18.498;2023-12-22T15:31:37;8;6;6
68116;PMS7003;54909;54.464;18.498;2023-12-22T15:34:40;5;3;2
68116;PMS7003;54909;54.464;18.498;2023-12-22T15:37:46;12;10;7
68116;PMS7003;54909;54.464;18.498;2023-12-22T15:40:47;3;2;1
68116;PMS7003;54909;54.464;18.498;2023-12-22T15:43:48;2;2;2
68116;PMS7003;54909;54.464;18.498;2023-12-22T15:46:56;2;2;2
68116;PMS7003;54909;54.464;18.498;2023-12-22T15:49:57;10;6;6
68116;PMS7003;54909;54.464;18.498;2023-12-22T15:52:58;4;3;2
68116;PMS7003;54909;54.464;18.498;2023-12-22T15:56:06;6;4;3
68116;PMS7003;54909;54.464;18.498;2023-12-22T15:59:12;5;5;3
68116;PMS7003;54909;54.464;18.498;2023-12-22T16:02:15;5;4;3
68116;PMS7003;54909;54.464;18.498;2023-12-22T16:05:16;6;4;2
68116;PMS7003;54909;54.464;18.498;2023-12-22T16:08:17;7;2;2
68116;PMS7003;54909;54.464;18.498;2023-12-22T16:11:19;8;7;5
68116;PMS7003;54909;54.464;18.498;2023-12-22T16:14:26;5;4;3
68116;PMS7003;54909;54.464;18.498;2023-12-22T16:17:28;7;6;4
68116;PMS7003;54909;54.464;18.498;2023-12-22T16:20:29;6;4;2
68116;PMS7003;54909;54.464;18.498;2023-12-22T16:23:35;7;5;4
68116;PMS7003;54909;54.464;18.498;2023-12-22T16:26:36;6;5;4
68116;PMS7003;54909;54.464;18.498;2023-12-22T16:29:40;11;4;2
68116;PMS7003;54909;54.464;18.498;2023-12-22T16:32:45;7;6;3
68116;PMS7003;54909;54.464;18.498;2023-12-22T16:35:46;5;3;3
68116;PMS7003;54909;54.464;18.498;2023-12-22T16:38:47;13;6;4
68116;PMS7003;54909;54.464;18.498;2023-12-22T16:41:54;4;4;2
68116;PMS7003;54909;54.464;18.498;2023-12-22T16:44:56;4;2;2
68116;PMS7003;54909;54.464;18.498;2023-12-22T16:47:59;7;6;4
68116;PMS7003;54909;54.464;18.498;2023-12-22T16:51:04;6;5;4
68116;PMS7003;54909;54.464;18.498;2023-12-22T16:54:05;6;5;3
68116;PMS7003;54909;54.464;18.498;2023-12-22T16:57:07;15;12;10
68116;PMS7003;54909;54.464;18.498;2023-12-22T17:00:14;7;7;5
68116;PMS7003;54909;54.464;18.498;2023-12-22T17:03:16;10;7;5
68116;PMS7003;54909;54.464;18.498;2023-12-22T17:06:17;9;8;7
68116;PMS7003;54909;54.464;18.498;2023-12-22T17:09:24;9;7;7
68116;PMS7003;54909;54.464;18.498;2023-12-22T17:12:25;11;8;6
68116;PMS7003;54909;54.464;18.498;2023-12-22T17:15:26;12;12;8
68116;PMS7003;54909;54.464;18.498;2023-12-22T17:18:34;11;9;6
68116;PMS7003;54909;54.464;18.498;2023-12-22T17:21:36;14;11;9
68116;PMS7003;54909;54.464;18.498;2023-12-22T17:24:42;13;9;7
68116;PMS7003;54909;54.464;18.498;2023-12-22T17:27:44;17;13;9
68116;PMS7003;54909;54.464;18.498;2023-12-22T17:30:46;12;10;7
68116;PMS7003;54909;54.464;18.498;2023-12-22T17:33:47;15;9;7
68116;PMS7003;54909;54.464;18.498;2023-12-22T17:36:55;9;8;6
68116;PMS7003;54909;54.464;18.498;2023-12-22T17:39:56;10;10;8
68116;PMS7003;54909;54.464;18.498;2023-12-22T17:42:57;12;12;8
68116;PMS7003;54909;54.464;18.498;2023-12-22T17:46:05;10;8;7
68116;PMS7003;54909;54.464;18.498;2023-12-22T17:49:07;18;14;9
68116;PMS7003;54909;54.464;18.498;2023-12-22T17:52:09;10;10;7
68116;PMS7003;54909;54.464;18.498;2023-12-22T17:55:16;12;9;8
68116;PMS7003;54909;54.464;18.498;2023-12-22T17:58:17;13;10;7
68116;PMS7003;54909;54.464;18.498;2023-12-22T18:01:19;12;9;7
68116;PMS7003;54909;54.464;18.498;2023-12-22T18:04:26;11;8;6
68116;PMS7003;54909;54.464;18.498;2023-12-22T18:07:27;9;9;7
68116;PMS7003;54909;54.464;18.498;2023-12-22T18:10:28;7;7;6
68116;PMS7003;54909;54.464;18.498;2023-12-22T18:13:36;9;8;6
68116;PMS7003;54909;54.464;18.498;2023-12-22T18:16:38;11;9;6
68116;PMS7003;54909;54.464;18.498;2023-12-22T18:19:40;11;10;7
68116;PMS7003;54909;54.464;18.498;2023-12-22T18:22:46;15;13;9
68116;PMS7003;54909;54.464;18.498;2023-12-22T18:25:47;13;8;8
68116;PMS7003;54909;54.464;18.498;2023-12-22T18:28:48;13;10;8
68116;PMS7003;54909;54.464;18.498;2023-12-22T18:31:56;13;10;8
68116;PMS7003;54909;54.464;18.498;2023-12-22T18:34:58;14;9;8
68116;PMS7003;54909;54.464;18.498;2023-12-22T18:37:59;8;7;6
68116;PMS7003;54909;54.464;18.498;2023-12-22T18:41:08;16;10;8
68116;PMS7003;54909;54.464;18.498;2023-12-22T18:44:12;13;9;6
68116;PMS7003;54909;54.464;18.498;2023-12-22T18:47:13;15;12;8
68116;PMS7003;54909;54.464;18.498;2023-12-22T18:50:16;12;9;8
68116;PMS7003;54909;54.464;18.498;2023-12-22T18:53:17;12;8;7
68116;PMS7003;54909;54.464;18.498;2023-12-22T18:56:21;14;12;7
68116;PMS7003;54909;54.464;18.498;2023-12-22T18:59:27;13;9;7
68116;PMS7003;54909;54.464;18.498;2023-12-22T19:02:28;10;8;5
68116;PMS7003;54909;54.464;18.498;2023-12-22T19:05:29;8;8;6
68116;PMS7003;54909;54.464;18.498;2023-12-22T19:08:37;8;8;6
68116;PMS7003;54909;54.464;18.498;2023-12-22T19:11:38;9;8;6
68116;PMS7003;54909;54.464;18.498;2023-12-22T19:14:44;12;11;8
68116;PMS7003;54909;54.464;18.498;2023-12-22T19:17:48;13;11;7
68116;PMS7003;54909;54.464;18.498;2023-12-22T19:20:49;9;8;6
68116;PMS7003;54909;54.464;18.498;2023-12-22T19:23:51;8;7;5
68116;PMS7003;54909;54.464;18.498;2023-12-22T19:26:58;16;13;8
68116;PMS7003;54909;54.464;18.498;2023-12-22T19:30:00;12;8;7
68116;PMS7003;54909;54.464;18.498;2023-12-22T19:33:02;11;7;6
68116;PMS7003;54909;54.464;18.498;2023-12-22T19:36:09;14;14;8
68116;PMS7003;54909;54.464;18.498;2023-12-22T19:39:12;11;7;5
68116;PMS7003;54909;54.464;18.498;2023-12-22T19:42:13;9;9;6
68116;PMS7003;54909;54.464;18.498;2023-12-22T19:45:20;8;7;5
68116;PMS7003;54909;54.464;18.498;2023-12-22T19:48:21;8;7;5
68116;PMS7003;54909;54.464;18.498;2023-12-22T19:51:22;9;7;4
68116;PMS7003;54909;54.464;18.498;2023-12-22T19:54:29;10;7;5
68116;PMS7003;54909;54.464;18.498;2023-12-22T19:57:30;32;27;14
68116;PMS7003;54909;54.464;18.498;2023-12-22T20:00:32;11;8;6
68116;PMS7003;54909;54.464;18.498;2023-12-22T20:03:40;9;8;7
68116;PMS7003;54909;54.464;18.498;2023-12-22T20:06:41;13;9;7
68116;PMS7003;54909;54.464;18.498;2023-12-22T20:09:44;16;11;7
68116;PMS7003;54909;54.464;18.498;2023-12-22T20:12:50;11;8;6
68116;PMS7003;54909;54.464;18.498;2023-12-22T20:15:51;8;7;5
68116;PMS7003;54909;54.464;18.498;2023-12-22T20:18:54;9;9;6
68116;PMS7003;54909;54.464;18.498;2023-12-22T20:22:00;12;11;8
68116;PMS7003;54909;54.464;18.498;2023-12-22T20:25:01;27;20;14
68116;PMS7003;54909;54.464;18.498;2023-12-22T20:28:03;7;6;4
68116;PMS7003;54909;54.464;18.498;2023-12-22T20:31:10;12;10;7
68116;PMS7003;54909;54.464;18.498;2023-12-22T20:34:11;8;8;5